Akebono — JG5644 — position and weather

sailwx.info

Track history (hours):
 
Tides and Currents Weather Stations Pressure Air Temp Water Temp Dewpoint Dewpoint Depression Visibility Wind Speed Wind Dir Waves Ship Positions

Akebono

Last reported at 2017-Sep-24 22:59 UTC. Time now 2017-Sep-25 02:55 UTC.
Position N 35°31' E 139°58'.

Length 33 m; draft 4.4 m.

Type: Tug. MMSI: 431000233.

Date/timePositionNaut miles runAvg speedWind from/ knotsBaromVisibWave heightAir tempDewpointWater temp
2017-Sep-24 22:59N 35°31' E 139°58'2 4.0
2017-Sep-24 22:30N 35°32' E 139°56'  
2017-Sep-21 03:58N 35°28' E 139°58'0 0.0
2017-Sep-21 03:30N 35°28' E 139°58'0 0.7
2017-Sep-21 03:00N 35°29' E 139°58'2 2.9
2017-Sep-21 02:26N 35°30' E 139°56'1 0.2
2017-Sep-20 23:26N 35°29' E 139°56'7 0.2
2017-Sep-19 07:03N 35°34' E 140°02'6 1.8
2017-Sep-19 03:30N 35°29' E 139°58'1 0.8
2017-Sep-19 02:45N 35°28' E 139°58'0 0.0
2017-Sep-19 02:30N 35°28' E 139°58'1 1.2
2017-Sep-19 02:00N 35°29' E 139°58'3 5.2
2017-Sep-19 01:23N 35°29' E 139°54'0 1.0
2017-Sep-19 00:59N 35°29' E 139°54'0 0.2
2017-Sep-19 00:31N 35°29' E 139°54'6 0.3
2017-Sep-18 07:13N 35°31' E 140°01'1 6.2
2017-Sep-18 07:00N 35°31' E 139°59'1 1.5
2017-Sep-18 06:26N 35°32' E 139°58'  
2017-Sep-15 06:27N 35°32' E 139°57'  
Track history (hours):
 
Tides and Currents Weather Stations Pressure Air Temp Water Temp Dewpoint Dewpoint Depression Visibility Wind Speed Wind Dir Waves Ship Positions

Akebono

Last reported at 2017-Sep-24 22:59 UTC. Time now 2017-Sep-25 02:55 UTC.
Position N 35°31' E 139°58'.

Length 33 m; draft 4.4 m.

Type: Tug. MMSI: 431000233.

Date/timePositionNaut miles runAvg speedWind from/ knotsBaromVisibWave heightAir tempDewpointWater temp
2017-Sep-24 22:59N 35°31' E 139°58'2 4.0
2017-Sep-24 22:30N 35°32' E 139°56'  
2017-Sep-21 03:58N 35°28' E 139°58'0 0.0
2017-Sep-21 03:30N 35°28' E 139°58'0 0.7
2017-Sep-21 03:00N 35°29' E 139°58'2 2.9
2017-Sep-21 02:26N 35°30' E 139°56'1 0.2
2017-Sep-20 23:26N 35°29' E 139°56'7 0.2
2017-Sep-19 07:03N 35°34' E 140°02'6 1.8
2017-Sep-19 03:30N 35°29' E 139°58'1 0.8
2017-Sep-19 02:45N 35°28' E 139°58'0 0.0
2017-Sep-19 02:30N 35°28' E 139°58'1 1.2
2017-Sep-19 02:00N 35°29' E 139°58'3 5.2
2017-Sep-19 01:23N 35°29' E 139°54'0 1.0
2017-Sep-19 00:59N 35°29' E 139°54'0 0.2
2017-Sep-19 00:31N 35°29' E 139°54'6 0.3
2017-Sep-18 07:13N 35°31' E 140°01'1 6.2
2017-Sep-18 07:00N 35°31' E 139°59'1 1.5
2017-Sep-18 06:26N 35°32' E 139°58'  
2017-Sep-15 06:27N 35°32' E 139°57'  

Dump ship's entire track history